createdAt,value
2016-06-25T00:00:42.161Z,59.33
2016-06-25T00:01:40.440Z,59.14
2016-06-25T00:02:40.441Z,59.43
2016-06-25T00:03:41.071Z,59.43
2016-06-25T00:04:40.465Z,59.43
2016-06-25T00:05:41.080Z,59.23
2016-06-25T00:06:40.465Z,60.11
2016-06-25T00:07:41.085Z,59.82
2016-06-25T00:08:41.087Z,60.11
2016-06-25T00:09:41.094Z,60.01
2016-06-25T00:10:41.098Z,60.01
2016-06-25T00:11:42.210Z,60.11
2016-06-25T00:12:41.129Z,59.63
2016-06-25T00:13:40.514Z,60.3
2016-06-25T00:14:41.124Z,60.01
2016-06-25T00:15:41.130Z,59.82
2016-06-25T00:16:41.142Z,59.82
2016-06-25T00:17:40.525Z,59.82
2016-06-25T00:18:40.530Z,60.11
2016-06-25T00:19:40.529Z,60.69
2016-06-25T00:20:41.155Z,60.21
2016-06-25T00:21:40.549Z,60.88
2016-06-25T00:22:41.168Z,60.98
2016-06-25T00:23:40.548Z,60.5
2016-06-25T00:24:40.566Z,60.69
2016-06-25T00:25:41.192Z,60.95
2016-06-25T00:26:40.561Z,60.95
2016-06-25T00:27:41.190Z,61.15
2016-06-25T00:28:41.188Z,60.85
2016-06-25T00:29:40.588Z,60.85
2016-06-25T00:30:41.198Z,60.88
2016-06-25T00:31:41.201Z,60.5
2016-06-25T00:32:41.207Z,61.08
2016-06-25T00:33:41.223Z,61.05
2016-06-25T00:34:41.213Z,60.95
2016-06-25T00:35:41.228Z,61.15
2016-06-25T00:36:40.606Z,60.95
2016-06-25T00:37:41.234Z,61.24
2016-06-25T00:38:41.238Z,60.85
2016-06-25T00:39:41.247Z,60.57
2016-06-25T00:40:40.624Z,60.21
2016-06-25T00:41:41.248Z,60.01
2016-06-25T00:42:41.242Z,60.21
2016-06-25T00:43:41.257Z,60.3
2016-06-25T00:44:41.270Z,60.4
2016-06-25T00:45:40.649Z,60.75
2016-06-25T00:46:40.654Z,61.08
2016-06-25T00:47:41.278Z,60.66
2016-06-25T00:48:41.304Z,61.24
2016-06-25T00:49:40.667Z,60.75
2016-06-25T00:50:40.671Z,61.05
2016-06-25T00:51:40.669Z,60.88
2016-06-25T00:52:41.302Z,60.66
2016-06-25T00:53:41.134Z,61.08
2016-06-25T00:54:41.311Z,60.37
2016-06-25T00:55:41.320Z,60.11
2016-06-25T00:56:41.331Z,60.4
2016-06-25T00:57:41.320Z,60.59
2016-06-25T00:58:41.323Z,60.3
2016-06-25T00:59:40.722Z,60.21
2016-06-25T01:00:41.341Z,60.5
2016-06-25T01:01:41.350Z,60.5
2016-06-25T01:02:41.393Z,60.21
2016-06-25T01:03:40.732Z,60.5
2016-06-25T01:04:41.470Z,60.5
2016-06-25T01:05:41.363Z,60.75
2016-06-25T01:06:41.379Z,61.08
2016-06-25T01:07:40.763Z,61.18
2016-06-25T01:08:41.399Z,61.08
2016-06-25T01:09:41.383Z,61.05
2016-06-25T01:10:41.381Z,60.37
2016-06-25T01:11:41.389Z,60.59
2016-06-25T01:12:41.413Z,60.5
2016-06-25T01:13:40.785Z,60.11
2016-06-25T01:14:41.398Z,60.3
2016-06-25T01:15:41.602Z,60.98
2016-06-25T01:16:40.797Z,60.95
2016-06-25T01:17:41.420Z,60.88
2016-06-25T01:18:41.462Z,61.08
2016-06-25T01:19:40.821Z,60.95
2016-06-25T01:20:41.439Z,61.15
2016-06-25T01:21:41.442Z,61.24
2016-06-25T01:22:40.829Z,61.15
2016-06-25T01:23:40.830Z,61.53
2016-06-25T01:24:41.469Z,61.15
2016-06-25T01:25:41.467Z,60.85
2016-06-25T01:26:41.612Z,60.66
2016-06-25T01:27:41.479Z,61.24
2016-06-25T01:28:41.473Z,61.24
2016-06-25T01:29:41.480Z,61.72
2016-06-25T01:30:40.860Z,61.63
2016-06-25T01:31:41.481Z,61.72
2016-06-25T01:32:41.491Z,62.11
2016-06-25T01:33:41.501Z,61.53
2016-06-25T01:34:41.511Z,61.53
2016-06-25T01:35:41.503Z,61.63
2016-06-25T01:36:41.501Z,61.63
2016-06-25T01:37:41.609Z,61.53
2016-06-25T01:38:40.896Z,61.82
2016-06-25T01:39:41.528Z,61.92
2016-06-25T01:40:40.904Z,61.43
2016-06-25T01:41:40.914Z,61.43
2016-06-25T01:42:41.541Z,60.95
2016-06-25T01:43:40.923Z,61.15
2016-06-25T01:44:41.540Z,61.63
2016-06-25T01:45:41.548Z,61.92
2016-06-25T01:46:41.548Z,61.63
2016-06-25T01:47:41.552Z,61.82
2016-06-25T01:48:41.955Z,61.63
2016-06-25T01:49:40.943Z,61.63
2016-06-25T01:50:41.573Z,61.72
2016-06-25T01:51:40.954Z,61.72
2016-06-25T01:52:41.570Z,61.43
2016-06-25T01:53:40.959Z,61.72
2016-06-25T01:54:41.582Z,61.72
2016-06-25T01:55:40.986Z,61.63
2016-06-25T01:56:41.594Z,61.72
2016-06-25T01:57:41.039Z,61.82
2016-06-25T01:58:40.994Z,61.53
2016-06-25T01:59:42.054Z,61.08
2016-06-25T02:00:41.608Z,60.69
2016-06-25T02:01:41.096Z,60.11
2016-06-25T02:02:41.013Z,60.88
2016-06-25T02:03:41.616Z,60.78
2016-06-25T02:04:41.626Z,61.15
2016-06-25T02:05:41.629Z,62.01
2016-06-25T02:06:41.681Z,62.5
2016-06-25T02:07:41.640Z,62.5
2016-06-25T02:08:41.049Z,62.3
2016-06-25T02:09:41.680Z,62.69
2016-06-25T02:10:42.110Z,62.3
2016-06-25T02:11:41.654Z,62.5
2016-06-25T02:12:41.192Z,62.4
2016-06-25T02:13:41.053Z,62.79
2016-06-25T02:14:41.670Z,62.5
2016-06-25T02:15:41.698Z,62.69
2016-06-25T02:16:41.057Z,62.4
2016-06-25T02:17:41.689Z,62.21
2016-06-25T02:18:41.689Z,61.92
2016-06-25T02:19:41.692Z,62.5
2016-06-25T02:20:41.695Z,62.21
2016-06-25T02:21:42.606Z,61.63
2016-06-25T02:22:41.698Z,61.92
2016-06-25T02:23:42.105Z,61.72
2016-06-25T02:24:41.716Z,61.92
2016-06-25T02:25:41.722Z,61.72
2016-06-25T02:26:41.723Z,61.53
2016-06-25T02:27:41.110Z,61.27
2016-06-25T02:28:41.742Z,62.11
2016-06-25T02:29:41.742Z,61.63
2016-06-25T02:30:41.743Z,62.01
2016-06-25T02:31:41.755Z,61.82
2016-06-25T02:32:42.699Z,61.82
2016-06-25T02:33:41.761Z,61.53
2016-06-25T02:34:42.232Z,61.72
2016-06-25T02:35:41.765Z,61.82
2016-06-25T02:36:41.161Z,62.01
2016-06-25T02:37:41.784Z,61.63
2016-06-25T02:38:41.778Z,61.92
2016-06-25T02:39:41.782Z,61.92
2016-06-25T02:40:41.171Z,62.5
2016-06-25T02:41:41.187Z,61.92
2016-06-25T02:42:41.803Z,62.69
2016-06-25T02:43:42.816Z,62.56
2016-06-25T02:44:41.824Z,62.5
2016-06-25T02:45:42.362Z,62.5
2016-06-25T02:46:41.198Z,62.98
2016-06-25T02:47:41.206Z,62.95
2016-06-25T02:48:41.828Z,62.56
2016-06-25T02:49:41.832Z,62.79
2016-06-25T02:50:41.858Z,62.5
2016-06-25T02:51:41.222Z,62.59
2016-06-25T02:52:41.841Z,62.88
2016-06-25T02:53:41.852Z,62.98
2016-06-25T02:54:42.988Z,62.88
2016-06-25T02:55:41.857Z,62.5
2016-06-25T02:56:41.944Z,63.08
2016-06-25T02:57:41.917Z,63.18
2016-06-25T02:58:41.920Z,63.24
2016-06-25T02:59:41.877Z,62.76
2016-06-25T03:00:41.875Z,62.98
2016-06-25T03:01:41.263Z,62.5
2016-06-25T03:02:41.887Z,62.21
2016-06-25T03:03:41.939Z,62.98
2016-06-25T03:04:41.888Z,62.3
2016-06-25T03:05:41.893Z,62.69
2016-06-25T03:06:41.899Z,62.88
2016-06-25T03:07:42.086Z,62.66
2016-06-25T03:08:41.913Z,62.98
2016-06-25T03:09:41.295Z,62.88
2016-06-25T03:10:41.306Z,62.88
2016-06-25T03:11:41.306Z,62.69
2016-06-25T03:12:41.927Z,63.76
2016-06-25T03:13:41.930Z,63.08
2016-06-25T03:14:41.955Z,63.14
2016-06-25T03:15:41.491Z,63.34
2016-06-25T03:16:43.143Z,63.66
2016-06-25T03:17:42.116Z,63.27
2016-06-25T03:18:42.314Z,63.08
2016-06-25T03:19:41.448Z,63.37
2016-06-25T03:20:42.067Z,63.08
2016-06-25T03:21:41.523Z,62.98
2016-06-25T03:22:42.014Z,63.18
2016-06-25T03:23:41.357Z,63.08
2016-06-25T03:24:41.360Z,63.27
2016-06-25T03:25:41.990Z,63.18
2016-06-25T03:26:41.367Z,63.46
2016-06-25T03:27:42.006Z,63.24
2016-06-25T03:28:42.016Z,62.98
2016-06-25T03:29:42.811Z,63.08
2016-06-25T03:30:41.395Z,62.88
2016-06-25T03:31:42.007Z,62.88
2016-06-25T03:32:42.015Z,63.27
2016-06-25T03:33:42.034Z,63.56
2016-06-25T03:34:42.035Z,63.27
2016-06-25T03:35:42.032Z,63.56
2016-06-25T03:36:42.062Z,63.37
2016-06-25T03:37:42.041Z,63.37
2016-06-25T03:38:42.042Z,63.46
2016-06-25T03:39:42.045Z,63.18
2016-06-25T03:40:43.153Z,63.37
2016-06-25T03:41:42.066Z,62.79
2016-06-25T03:42:42.054Z,63.37
2016-06-25T03:43:41.445Z,63.08
2016-06-25T03:44:42.066Z,63.08
2016-06-25T03:45:42.078Z,62.98
2016-06-25T03:46:42.082Z,63.27
2016-06-25T03:47:42.081Z,63.66
2016-06-25T03:48:42.079Z,63.27
2016-06-25T03:49:42.091Z,63.37
2016-06-25T03:50:42.094Z,64.04
2016-06-25T03:51:42.573Z,63.73
2016-06-25T03:52:42.108Z,64.04
2016-06-25T03:53:42.103Z,64.24
2016-06-25T03:54:42.132Z,63.92
2016-06-25T03:55:42.125Z,64.11
2016-06-25T03:56:42.122Z,64.01
2016-06-25T03:57:42.178Z,64.11
2016-06-25T03:58:42.237Z,64.21
2016-06-25T03:59:42.137Z,64.11
2016-06-25T04:00:42.147Z,64.21
2016-06-25T04:01:42.151Z,64.11
2016-06-25T04:02:41.530Z,63.89
2016-06-25T04:03:41.686Z,64.4
2016-06-25T04:04:42.157Z,64.4
2016-06-25T04:05:42.167Z,64.21
2016-06-25T04:06:42.165Z,64.98
2016-06-25T04:07:42.163Z,64.21
2016-06-25T04:08:42.176Z,63.34
2016-06-25T04:09:41.557Z,62.85
2016-06-25T04:10:42.177Z,63.24
2016-06-25T04:11:42.390Z,63.73
2016-06-25T04:12:42.192Z,64.11
2016-06-25T04:13:41.588Z,64.11
2016-06-25T04:14:41.578Z,64.01
2016-06-25T04:15:42.206Z,64.11
2016-06-25T04:16:42.213Z,63.92
2016-06-25T04:17:41.594Z,64.01
2016-06-25T04:18:42.225Z,64.5
2016-06-25T04:19:42.230Z,63.82
2016-06-25T04:20:42.226Z,64.11
2016-06-25T04:21:42.230Z,64.4
2016-06-25T04:22:42.118Z,64.89
2016-06-25T04:23:42.250Z,64.47
2016-06-25T04:24:42.239Z,64.76
2016-06-25T04:25:41.626Z,64.37
2016-06-25T04:26:41.631Z,64.21
2016-06-25T04:27:42.260Z,64.21
2016-06-25T04:28:42.258Z,63.82
2016-06-25T04:29:42.268Z,63.43
2016-06-25T04:30:42.266Z,64.01
2016-06-25T04:31:42.277Z,63.73
2016-06-25T04:32:42.272Z,64.31
2016-06-25T04:33:43.074Z,64.79
2016-06-25T04:34:41.656Z,64.21
2016-06-25T04:35:42.286Z,64.31
2016-06-25T04:36:42.288Z,64.21
2016-06-25T04:37:42.293Z,64.18
2016-06-25T04:38:42.314Z,64.59
2016-06-25T04:39:42.306Z,63.98
2016-06-25T04:40:42.309Z,64.89
2016-06-25T04:41:41.685Z,64.4
2016-06-25T04:42:42.322Z,64.59
2016-06-25T04:43:42.357Z,65.14
2016-06-25T04:44:43.417Z,65.14
2016-06-25T04:45:42.325Z,65.24
2016-06-25T04:46:42.524Z,65.05
2016-06-25T04:47:41.708Z,65.72
2016-06-25T04:48:42.332Z,65.34
2016-06-25T04:49:41.745Z,64.85
2016-06-25T04:50:42.339Z,65.05
2016-06-25T04:51:42.343Z,65.14
2016-06-25T04:52:42.353Z,66.91
2016-06-25T04:53:41.737Z,67.36
2016-06-25T04:54:41.737Z,67.24
2016-06-25T04:55:41.743Z,67.52
2016-06-25T04:56:42.359Z,67.62
2016-06-25T04:57:42.903Z,68.1
2016-06-25T04:58:42.424Z,68.49
2016-06-25T04:59:41.805Z,68.4
2016-06-25T05:00:41.761Z,68.78
2016-06-25T05:01:42.395Z,68.78
2016-06-25T05:02:42.385Z,68.78
2016-06-25T05:03:42.391Z,69.46
2016-06-25T05:04:42.388Z,69.26
2016-06-25T05:05:42.389Z,69.62
2016-06-25T05:06:41.783Z,69.81
2016-06-25T05:07:41.787Z,69.62
2016-06-25T05:08:43.311Z,70.29
2016-06-25T05:09:42.407Z,70.1
2016-06-25T05:10:41.793Z,70.2
2016-06-25T05:11:41.807Z,69.04
2016-06-25T05:12:41.809Z,68.78
2016-06-25T05:13:42.424Z,68.88
2016-06-25T05:14:42.427Z,68.78
2016-06-25T05:15:42.777Z,68.4
2016-06-25T05:16:42.442Z,66.85
2016-06-25T05:17:42.437Z,67.46
2016-06-25T05:18:42.440Z,66.27
2016-06-25T05:19:41.830Z,65.82
2016-06-25T05:20:42.441Z,66.3
2016-06-25T05:21:41.846Z,66.2
2016-06-25T05:22:42.458Z,66.2
2016-06-25T05:23:41.845Z,66.01
2016-06-25T05:24:42.464Z,65.82
2016-06-25T05:25:41.855Z,66.3
2016-06-25T05:26:43.172Z,66.4
2016-06-25T05:27:42.475Z,66.3
2016-06-25T05:28:42.514Z,66.01
2016-06-25T05:29:42.490Z,65.82
2016-06-25T05:30:42.489Z,66.11
2016-06-25T05:31:42.503Z,65.53
2016-06-25T05:32:42.517Z,65.63
2016-06-25T05:33:42.500Z,65.63
2016-06-25T05:34:42.500Z,65.43
2016-06-25T05:35:42.521Z,65.53
2016-06-25T05:36:42.504Z,65.34
2016-06-25T05:37:43.580Z,65.24
2016-06-25T05:38:41.891Z,65.05
2016-06-25T05:39:42.871Z,64.69
2016-06-25T05:40:42.536Z,64.37
2016-06-25T05:41:42.535Z,64.79
2016-06-25T05:42:42.543Z,64.11
2016-06-25T05:43:41.945Z,64.69
2016-06-25T05:44:42.564Z,64.79
2016-06-25T05:45:41.935Z,64.69
2016-06-25T05:46:41.925Z,64.59
2016-06-25T05:47:42.558Z,64.79
2016-06-25T05:48:41.935Z,64.69
2016-06-25T05:49:41.950Z,64.56
2016-06-25T05:50:43.082Z,65.08
2016-06-25T05:51:41.966Z,65.53
2016-06-25T05:52:42.580Z,65.72
2016-06-25T05:53:41.966Z,66.11
2016-06-25T05:54:42.580Z,66.3
2016-06-25T05:55:42.592Z,65.82
2016-06-25T05:56:42.593Z,65.82
2016-06-25T05:57:42.031Z,65.63
2016-06-25T05:58:42.611Z,64.95
2016-06-25T05:59:41.994Z,65.14
2016-06-25T06:00:42.618Z,64.95
2016-06-25T06:01:43.525Z,64.37
2016-06-25T06:02:42.626Z,64.21
2016-06-25T06:03:42.632Z,64.98
2016-06-25T06:04:42.642Z,64.4
2016-06-25T06:05:42.644Z,64.4
2016-06-25T06:06:42.022Z,64.69
2016-06-25T06:07:42.645Z,64.59
2016-06-25T06:08:42.023Z,64.21
2016-06-25T06:09:42.038Z,64.69
2016-06-25T06:10:42.050Z,64.89
2016-06-25T06:11:42.047Z,64.47
2016-06-25T06:12:42.059Z,64.89
2016-06-25T06:13:42.682Z,64.69
2016-06-25T06:14:42.673Z,64.11
2016-06-25T06:15:42.694Z,64.59
2016-06-25T06:16:42.686Z,64.4
2016-06-25T06:17:42.688Z,64.01
2016-06-25T06:18:42.086Z,64.79
2016-06-25T06:19:42.083Z,64.95
2016-06-25T06:20:42.710Z,65.24
2016-06-25T06:21:42.299Z,64.85
2016-06-25T06:22:42.724Z,65.05
2016-06-25T06:23:42.104Z,64.98
2016-06-25T06:24:42.739Z,64.4
2016-06-25T06:25:42.113Z,64.31
2016-06-25T06:26:42.743Z,63.82
2016-06-25T06:27:42.740Z,64.11
2016-06-25T06:28:42.755Z,64.01
2016-06-25T06:29:42.760Z,63.82
2016-06-25T06:30:42.183Z,64.21
2016-06-25T06:31:42.766Z,64.69
2016-06-25T06:32:42.772Z,64.98
2016-06-25T06:33:42.156Z,64.11
2016-06-25T06:34:42.773Z,64.59
2016-06-25T06:35:42.783Z,64.4
2016-06-25T06:36:42.164Z,64.11
2016-06-25T06:37:42.826Z,64.11
2016-06-25T06:38:42.181Z,64.01
2016-06-25T06:39:42.826Z,64.89
2016-06-25T06:40:42.803Z,65.14
2016-06-25T06:41:42.836Z,64.21
2016-06-25T06:42:42.826Z,64.21
2016-06-25T06:43:43.087Z,63.34
2016-06-25T06:44:42.230Z,63.43
2016-06-25T06:45:42.222Z,63.53
2016-06-25T06:46:42.849Z,64.11
2016-06-25T06:47:42.854Z,64.21
2016-06-25T06:48:42.871Z,64.18
2016-06-25T06:49:42.866Z,64.18
2016-06-25T06:50:42.245Z,64.89
2016-06-25T06:51:42.885Z,64.5
2016-06-25T06:52:42.259Z,65.14
2016-06-25T06:53:42.903Z,64.95
2016-06-25T06:54:43.532Z,64.66
2016-06-25T06:55:42.890Z,64.47
2016-06-25T06:56:43.046Z,64.01
2016-06-25T06:57:42.290Z,63.73
2016-06-25T06:58:42.903Z,63.73
2016-06-25T06:59:42.346Z,64.01
2016-06-25T07:00:42.915Z,64.5
2016-06-25T07:01:42.922Z,64.11
2016-06-25T07:02:42.926Z,63.14
2016-06-25T07:03:42.932Z,64.11
2016-06-25T07:04:42.941Z,64.31
2016-06-25T07:05:43.645Z,63.82
2016-06-25T07:06:42.950Z,63.53
2016-06-25T07:07:42.578Z,64.79
2016-06-25T07:08:42.343Z,64.27
2016-06-25T07:09:42.972Z,64.27
2016-06-25T07:10:42.968Z,64.95
2016-06-25T07:11:42.983Z,64.37
2016-06-25T07:12:42.986Z,64.66
2016-06-25T07:13:42.975Z,64.31
2016-06-25T07:14:42.362Z,64.56
2016-06-25T07:15:42.988Z,64.56
2016-06-25T07:16:43.896Z,64.66
2016-06-25T07:17:43.009Z,65.14
2016-06-25T07:18:42.830Z,63.98
2016-06-25T07:19:43.009Z,64.08
2016-06-25T07:20:42.404Z,63.98
2016-06-25T07:21:43.025Z,64.47
2016-06-25T07:22:42.407Z,64.37
2016-06-25T07:23:43.029Z,64.37
2016-06-25T07:24:43.045Z,64.27
2016-06-25T07:25:43.040Z,63.79
2016-06-25T07:26:43.043Z,64.01
2016-06-25T07:27:42.439Z,63.89
2016-06-25T07:28:43.053Z,64.56
2016-06-25T07:29:43.338Z,64.27
2016-06-25T07:30:43.070Z,64.18
2016-06-25T07:31:43.074Z,63.89
2016-06-25T07:32:43.075Z,64.08
2016-06-25T07:33:43.074Z,64.18
2016-06-25T07:34:43.083Z,64.31
2016-06-25T07:35:43.102Z,64.01
2016-06-25T07:36:42.474Z,64.18
2016-06-25T07:37:43.099Z,63.98
2016-06-25T07:38:43.105Z,64.27
2016-06-25T07:39:43.106Z,63.43
2016-06-25T07:40:44.164Z,63.34
2016-06-25T07:41:43.117Z,64.08
2016-06-25T07:42:42.511Z,63.98
2016-06-25T07:43:43.125Z,64.47
2016-06-25T07:44:43.135Z,63.95
2016-06-25T07:45:43.149Z,64.63
2016-06-25T07:46:42.521Z,64.63
2016-06-25T07:47:42.530Z,65.01
2016-06-25T07:48:43.157Z,65.05
2016-06-25T07:49:43.160Z,64.56
2016-06-25T07:50:43.154Z,64.66
2016-06-25T07:51:43.956Z,64.53
2016-06-25T07:52:42.547Z,64.24
2016-06-25T07:53:42.556Z,64.08
2016-06-25T07:54:43.172Z,64.47
2016-06-25T07:55:43.182Z,64.08
2016-06-25T07:56:43.179Z,63.21
2016-06-25T07:57:43.187Z,62.92
2016-06-25T07:58:43.189Z,63.5
2016-06-25T07:59:43.250Z,64.18
2016-06-25T08:00:43.351Z,64.27
2016-06-25T08:01:42.584Z,63.11
2016-06-25T08:02:43.202Z,63.4
2016-06-25T08:03:43.222Z,63.31
2016-06-25T08:04:43.227Z,63.5
2016-06-25T08:05:42.605Z,64.08
2016-06-25T08:06:42.607Z,64.18
2016-06-25T08:07:43.233Z,63.31
2016-06-25T08:08:43.289Z,63.24
2016-06-25T08:09:42.623Z,63.4
2016-06-25T08:10:43.247Z,64.18
2016-06-25T08:11:44.159Z,64.08
2016-06-25T08:12:42.639Z,63.5
2016-06-25T08:13:43.257Z,63.24
2016-06-25T08:14:42.649Z,63.79
2016-06-25T08:15:43.274Z,64.18
2016-06-25T08:16:42.655Z,63.89
2016-06-25T08:17:43.288Z,63.79
2016-06-25T08:18:43.289Z,63.69
2016-06-25T08:19:43.298Z,63.98
2016-06-25T08:20:43.307Z,63.98
2016-06-25T08:21:43.309Z,63.98
2016-06-25T08:22:43.972Z,63.21
2016-06-25T08:23:42.697Z,63.21
2016-06-25T08:24:43.809Z,63.02
2016-06-25T08:25:43.374Z,63.14
2016-06-25T08:26:43.337Z,63.5
2016-06-25T08:27:43.329Z,63.4
2016-06-25T08:28:43.355Z,63.24
2016-06-25T08:29:42.747Z,63.21
2016-06-25T08:30:42.728Z,63.6
2016-06-25T08:31:43.354Z,63.05
2016-06-25T08:32:42.738Z,63.4
2016-06-25T08:33:44.237Z,63.21
2016-06-25T08:34:43.366Z,63.79
2016-06-25T08:35:43.980Z,63.98
2016-06-25T08:36:42.769Z,63.11
2016-06-25T08:37:43.380Z,64.14
2016-06-25T08:38:43.395Z,64.24
2016-06-25T08:39:42.776Z,63.95
2016-06-25T08:40:43.403Z,63.69
2016-06-25T08:41:43.416Z,63.31
2016-06-25T08:42:42.791Z,63.31
2016-06-25T08:43:43.415Z,62.82
2016-06-25T08:44:42.802Z,63.79
2016-06-25T08:45:43.428Z,63.31
2016-06-25T08:46:44.185Z,62.44
2016-06-25T08:47:43.748Z,62.47
2016-06-25T08:48:43.447Z,62.85
2016-06-25T08:49:43.448Z,62.56
2016-06-25T08:50:42.836Z,62.56
2016-06-25T08:51:43.453Z,62.76
2016-06-25T08:52:43.459Z,62.66
2016-06-25T08:53:43.478Z,62.73
2016-06-25T08:54:42.863Z,62.56
2016-06-25T08:55:43.484Z,62.66
2016-06-25T08:56:43.493Z,62.37
2016-06-25T08:57:42.865Z,62.56
2016-06-25T08:58:42.874Z,62.95
2016-06-25T08:59:42.900Z,62.63
2016-06-25T09:00:42.898Z,62.53
2016-06-25T09:01:43.510Z,62.56
2016-06-25T09:02:43.519Z,62.37
2016-06-25T09:03:43.510Z,62.37
2016-06-25T09:04:42.910Z,62.66
2016-06-25T09:05:43.543Z,62.37
2016-06-25T09:06:43.538Z,62.85
2016-06-25T09:07:42.932Z,62.73
2016-06-25T09:08:43.584Z,62.63
2016-06-25T09:09:42.932Z,62.92
2016-06-25T09:10:43.567Z,62.63
2016-06-25T09:11:42.972Z,63.31
2016-06-25T09:12:43.568Z,63.11
2016-06-25T09:13:43.579Z,62.63
2016-06-25T09:14:42.961Z,62.92
2016-06-25T09:15:43.597Z,62.73
2016-06-25T09:16:43.591Z,62.63
2016-06-25T09:17:43.878Z,62.63
2016-06-25T09:18:43.604Z,62.34
2016-06-25T09:19:43.609Z,62.82
2016-06-25T09:20:43.610Z,62.92
2016-06-25T09:21:43.614Z,61.95
2016-06-25T09:22:43.699Z,62.89
2016-06-25T09:23:43.647Z,62.6
2016-06-25T09:24:43.627Z,61.92
2016-06-25T09:25:43.016Z,62.98
2016-06-25T09:26:43.641Z,62.6
2016-06-25T09:27:43.639Z,62.24
2016-06-25T09:28:44.009Z,62.15
2016-06-25T09:29:43.651Z,62.31
2016-06-25T09:30:43.652Z,62.63
2016-06-25T09:31:43.661Z,62.44
2016-06-25T09:32:43.671Z,61.66
2016-06-25T09:33:43.054Z,61.54
2016-06-25T09:34:43.712Z,62.15
2016-06-25T09:35:43.693Z,62.7
2016-06-25T09:36:43.087Z,61.76
2016-06-25T09:37:43.699Z,61.86
2016-06-25T09:38:43.699Z,61.37
2016-06-25T09:39:44.256Z,61.21
2016-06-25T09:40:43.087Z,61.18
2016-06-25T09:41:43.596Z,61.4
2016-06-25T09:42:43.714Z,61.76
2016-06-25T09:43:43.736Z,61.08
2016-06-25T09:44:43.722Z,60.99
2016-06-25T09:45:43.737Z,60.72
2016-06-25T09:46:43.125Z,60.79
2016-06-25T09:47:43.126Z,61.21
2016-06-25T09:48:43.750Z,60.99
2016-06-25T09:49:43.814Z,60.99
2016-06-25T09:50:43.832Z,62.02
2016-06-25T09:51:43.799Z,61.37
2016-06-25T09:52:44.130Z,61.83
2016-06-25T09:53:43.789Z,61.27
2016-06-25T09:54:43.165Z,60.79
2016-06-25T09:55:43.798Z,61.54
2016-06-25T09:56:43.801Z,61.92
2016-06-25T09:57:43.179Z,61.54
2016-06-25T09:58:43.805Z,61.34
2016-06-25T09:59:43.807Z,61.08
2016-06-25T10:00:43.205Z,60.41
2016-06-25T10:01:43.865Z,60.89
2016-06-25T10:02:43.833Z,60.6
2016-06-25T10:03:44.968Z,61.08
2016-06-25T10:04:43.841Z,60.79
2016-06-25T10:05:43.844Z,61.37
2016-06-25T10:06:43.227Z,61.54
2016-06-25T10:07:43.226Z,60.96
2016-06-25T10:08:43.858Z,60.79
2016-06-25T10:09:43.858Z,60.69
2016-06-25T10:10:43.879Z,60.38
2016-06-25T10:11:43.263Z,61.63
2016-06-25T10:12:43.882Z,60.96
2016-06-25T10:13:43.882Z,60.76
2016-06-25T10:14:44.438Z,60.86
2016-06-25T10:15:43.892Z,60.89
2016-06-25T10:16:43.893Z,60.96
2016-06-25T10:17:43.905Z,60.67
2016-06-25T10:18:43.904Z,60.11
2016-06-25T10:19:43.904Z,61.05
2016-06-25T10:20:43.294Z,60.57
2016-06-25T10:21:43.920Z,61.25
2016-06-25T10:22:43.936Z,61.54
2016-06-25T10:23:43.931Z,61.34
2016-06-25T10:24:43.945Z,61.15
2016-06-25T10:25:44.738Z,61.73
2016-06-25T10:26:43.941Z,61.05
2016-06-25T10:27:43.955Z,61.63
2016-06-25T10:28:43.953Z,60.76
2016-06-25T10:29:43.954Z,61.25
2016-06-25T10:30:43.340Z,60.57
2016-06-25T10:31:43.961Z,60.96
2016-06-25T10:32:43.351Z,61.05
2016-06-25T10:33:43.972Z,61.18
2016-06-25T10:34:44.226Z,61.18
2016-06-25T10:35:43.981Z,60.96
2016-06-25T10:36:43.986Z,60.96
2016-06-25T10:37:44.002Z,61.25
2016-06-25T10:38:44.005Z,61.05
2016-06-25T10:39:44.003Z,60.76
2016-06-25T10:40:43.395Z,61.15
2016-06-25T10:41:44.008Z,61.27
2016-06-25T10:42:44.012Z,60.38
2016-06-25T10:43:44.022Z,61.34
2016-06-25T10:44:43.413Z,61.15
2016-06-25T10:45:44.649Z,60.96
2016-06-25T10:46:43.420Z,61.34
2016-06-25T10:47:44.041Z,61.27
2016-06-25T10:48:43.429Z,61.27
2016-06-25T10:49:43.446Z,60.96
2016-06-25T10:50:44.093Z,60.99
2016-06-25T10:51:44.058Z,60.6
2016-06-25T10:52:43.447Z,60.79
2016-06-25T10:53:43.450Z,61.08
2016-06-25T10:54:44.074Z,60.31
2016-06-25T10:55:43.469Z,61.18
2016-06-25T10:56:45.222Z,61.25
2016-06-25T10:57:44.093Z,61.05
2016-06-25T10:58:44.349Z,61.54
2016-06-25T10:59:43.482Z,61.76
2016-06-25T11:00:43.493Z,61.44
2016-06-25T11:01:44.107Z,61.25
2016-06-25T11:02:43.499Z,60.67
2016-06-25T11:03:43.568Z,61.54
2016-06-25T11:04:44.129Z,60.76
2016-06-25T11:05:44.134Z,60.89
2016-06-25T11:06:44.135Z,61.66
2016-06-25T11:07:43.517Z,61.34
2016-06-25T11:08:43.527Z,61.25
2016-06-25T11:09:44.801Z,60.96
2016-06-25T11:10:44.158Z,61.63
2016-06-25T11:11:43.542Z,61.34
2016-06-25T11:12:43.554Z,61.83
2016-06-25T11:13:44.202Z,61.15
2016-06-25T11:14:44.174Z,61.57
2016-06-25T11:15:43.559Z,61.25
2016-06-25T11:16:44.341Z,61.37
2016-06-25T11:17:44.206Z,61.63
2016-06-25T11:18:44.207Z,61.63
2016-06-25T11:19:44.210Z,61.92
2016-06-25T11:20:45.259Z,62.02
2016-06-25T11:21:44.214Z,61.54
2016-06-25T11:22:43.596Z,60.69
2016-06-25T11:23:44.239Z,60.69
2016-06-25T11:24:44.218Z,60.99
2016-06-25T11:25:44.243Z,60.99
2016-06-25T11:26:44.234Z,61.37
2016-06-25T11:27:44.529Z,61.18
2016-06-25T11:28:44.254Z,61.08
2016-06-25T11:29:44.089Z,60.89
2016-06-25T11:30:44.261Z,60.69
2016-06-25T11:31:44.265Z,61.18
2016-06-25T11:32:44.262Z,61.18
2016-06-25T11:33:44.271Z,60.6
2016-06-25T11:34:43.657Z,60.69
2016-06-25T11:35:44.287Z,60.69
2016-06-25T11:36:43.689Z,60.5
2016-06-25T11:37:44.304Z,60.89
2016-06-25T11:38:45.388Z,61.86
2016-06-25T11:39:44.314Z,60.41
2016-06-25T11:40:44.490Z,60.79
2016-06-25T11:41:43.690Z,61.08
2016-06-25T11:42:44.329Z,60.5
2016-06-25T11:43:44.329Z,60.99
2016-06-25T11:44:44.342Z,61.08
2016-06-25T11:45:43.742Z,60.89
2016-06-25T11:46:44.342Z,60.5
2016-06-25T11:47:43.744Z,60.31
2016-06-25T11:48:43.753Z,60.11
2016-06-25T11:49:45.003Z,60.31
2016-06-25T11:50:44.370Z,60.89
2016-06-25T11:51:44.783Z,60.11
2016-06-25T11:52:44.390Z,60.6
2016-06-25T11:53:44.384Z,60.99
2016-06-25T11:54:44.399Z,60.89
2016-06-25T11:55:44.401Z,61.57
2016-06-25T11:56:44.414Z,61.44
2016-06-25T11:57:44.411Z,61.47
2016-06-25T11:58:44.422Z,61.86
2016-06-25T11:59:43.805Z,60.86
2016-06-25T12:00:45.389Z,60.6
2016-06-25T12:01:43.811Z,60.99
2016-06-25T12:02:43.815Z,61.18
2016-06-25T12:03:44.530Z,61.08
2016-06-25T12:04:44.445Z,60.89
2016-06-25T12:05:44.453Z,60.41
2016-06-25T12:06:44.466Z,60.5
2016-06-25T12:07:43.839Z,60.02
2016-06-25T12:08:44.462Z,60.79
2016-06-25T12:09:43.843Z,60.79
2016-06-25T12:10:43.851Z,60.5
2016-06-25T12:11:44.486Z,60.31
2016-06-25T12:12:44.488Z,60.02
2016-06-25T12:13:45.489Z,60.11
2016-06-25T12:14:44.489Z,60.31
2016-06-25T12:15:44.530Z,61.57
2016-06-25T12:16:43.898Z,61.76
2016-06-25T12:17:43.898Z,61.83
2016-06-25T12:18:43.902Z,61.44
2016-06-25T12:19:44.526Z,61.66
2016-06-25T12:20:44.525Z,61.47
2016-06-25T12:21:44.538Z,61.47
2016-06-25T12:22:44.532Z,61.44
2016-06-25T12:23:44.546Z,61.95
2016-06-25T12:24:43.939Z,62.31
2016-06-25T12:25:44.549Z,62.63
2016-06-25T12:26:44.564Z,61.66
2016-06-25T12:27:43.947Z,60.99
2016-06-25T12:28:44.569Z,61.08
2016-06-25T12:29:44.577Z,62.82
2016-06-25T12:30:44.582Z,62.6
2016-06-25T12:31:44.585Z,62.15
2016-06-25T12:32:44.583Z,61.63
2016-06-25T12:33:44.632Z,61.57
2016-06-25T12:34:43.984Z,62.73
2016-06-25T12:35:44.604Z,62.4
2016-06-25T12:36:44.607Z,62.02
2016-06-25T12:37:44.001Z,61.57
2016-06-25T12:38:44.617Z,61.76
2016-06-25T12:39:44.627Z,61.66
2016-06-25T12:40:44.627Z,61.18
2016-06-25T12:41:44.654Z,61.86
2016-06-25T12:42:44.638Z,61.18
2016-06-25T12:43:44.028Z,61.47
2016-06-25T12:44:45.099Z,60.99
2016-06-25T12:45:44.651Z,60.5
2016-06-25T12:46:44.650Z,60.11
2016-06-25T12:47:44.659Z,60.99
2016-06-25T12:48:44.670Z,61.18
2016-06-25T12:49:44.669Z,61.08
2016-06-25T12:50:44.679Z,60.99
2016-06-25T12:51:44.068Z,60.79
2016-06-25T12:52:44.076Z,61.86
2016-06-25T12:53:44.690Z,61.27
2016-06-25T12:54:44.084Z,61.37
2016-06-25T12:55:45.556Z,61.27